Forsyth, Montana
Current Conditions -  °F | °C
As of 3:53 PM on Monday 22 Dec 2014 (Local Time) from KMLS Reporting Station
Overcast Overcast  
Wind Chill: 23°   Ceiling: 2600
Heat Index: 35°   Visibility: 10mi
Dew Point: 27°   Wind: 25mph
Humidity: 72%   Direction: 330°NNW
Pressure: 29.79"   Gusts: 33mph
Location:  46.27°N, 106.68°W
Report Text: KMLS 222253Z AUTO 33022G29KT 10SM OVC026 02/M03 A2979 RMK AO2 PK WND 33035/2233 SNB35E43 SLP107 P0000 T00171028
Loading
Personal Weather Stations






























Interactive Weather Map New forecast layout! Learn more

10-Day Weather Forecast

Advertisements
Track Severe Weather on mobile